This is the latest recevied weather packets stored in our database for station/object OE6JVE-13. If no packets are shown the sender has not sent any weather packets the latest 10 day(s).
| Time | Temp. | Humidity | Pressure | Rain* | Wind** | Luminosity | Snow |
|---|---|---|---|---|---|---|---|
| 1777934127 | 17.78° C | 30% | 1005.8 hPa | 0 mm | - | - | - |
| 1777933535 | 17.78° C | 31% | 1005.8 hPa | 0 mm | - | - | - |
| 1777932943 | 16.11° C | 39% | 1005.7 hPa | 0 mm | - | - | - |
| 1777932351 | 15° C | 49% | 1005.9 hPa | 0 mm | - | - | - |
| 1777931759 | 15.56° C | 47% | 1006 hPa | 0 mm | - | - | - |
| 1777931167 | 16.67° C | 41% | 1006.1 hPa | 0 mm | - | - | - |
| 1777930574 | 16.67° C | 41% | 1006 hPa | 0 mm | - | - | - |
| 1777929917 | 17.78° C | 34% | 1005.9 hPa | 0 mm | - | - | - |
| 1777929324 | 17.78° C | 36% | 1006 hPa | 0 mm | - | - | - |
| 1777928733 | 18.33° C | 34% | 1006.1 hPa | 0 mm | - | - | - |
| 1777928141 | 18.89° C | 34% | 1006.1 hPa | 0 mm | - | - | - |
| 1777927548 | 17.22° C | 42% | 1006.1 hPa | 0 mm | - | - | - |
| 1777926956 | 15° C | 52% | 1006.1 hPa | 0 mm | - | - | - |
| 1777926365 | 15° C | 52% | 1006.2 hPa | 0 mm | - | - | - |
| 1777925772 | 15° C | 55% | 1006.3 hPa | 0 mm | - | - | - |
| 1777925180 | 15.56° C | 55% | 1006.3 hPa | 0 mm | - | - | - |
| 1777924522 | 15.56° C | 55% | 1006.3 hPa | 0 mm | - | - | - |
| 1777923930 | 15.56° C | 54% | 1006.3 hPa | 0 mm | - | - | - |
| 1777923337 | 15.56° C | 54% | 1006.3 hPa | 0 mm | - | - | - |
| 1777922746 | 16.67° C | 52% | 1006.2 hPa | 0 mm | - | - | - |
| 1777922154 | 16.67° C | 52% | 1006 hPa | 0 mm | - | - | - |
| 1777921562 | 17.22° C | 52% | 1005.9 hPa | 0 mm | - | - | - |
| 1777920970 | 17.22° C | 51% | 1005.9 hPa | 0 mm | - | - | - |
| 1777920377 | 17.78° C | 49% | 1005.8 hPa | 0 mm | - | - | - |
| 1777919719 | 16.67° C | 57% | 1005.7 hPa | 0 mm | - | - | - |
* Rain latest hour (hover to see other rain measurements)
** Current wind speed in m/s (hover to see current wind gust speed)